sensor_id;sensor_type;location;lat;lon;timestamp;temperature;humidity
47600;DHT22;33323;52.124;6.018;2022-11-20T00:01:31;-3.80;99.90
47600;DHT22;33323;52.124;6.018;2022-11-20T00:03:59;-3.90;99.90
47600;DHT22;33323;52.124;6.018;2022-11-20T00:06:27;-4.00;99.90
47600;DHT22;33323;52.124;6.018;2022-11-20T00:08:59;-4.00;99.90
47600;DHT22;33323;52.124;6.018;2022-11-20T00:11:29;-3.90;99.90
47600;DHT22;33323;52.124;6.018;2022-11-20T00:13:59;-3.90;99.90
47600;DHT22;33323;52.124;6.018;2022-11-20T00:16:28;-3.80;99.90
47600;DHT22;33323;52.124;6.018;2022-11-20T00:18:57;-3.90;99.90
47600;DHT22;33323;52.124;6.018;2022-11-20T00:21:26;-4.00;99.90
47600;DHT22;33323;52.124;6.018;2022-11-20T00:23:55;-4.10;99.90
47600;DHT22;33323;52.124;6.018;2022-11-20T00:26:25;-4.10;99.90
47600;DHT22;33323;52.124;6.018;2022-11-20T00:28:57;-4.10;99.90
47600;DHT22;33323;52.124;6.018;2022-11-20T00:31:26;-4.10;99.90
47600;DHT22;33323;52.124;6.018;2022-11-20T00:33:54;-4.10;99.90
47600;DHT22;33323;52.124;6.018;2022-11-20T00:36:23;-4.10;99.90
47600;DHT22;33323;52.124;6.018;2022-11-20T00:38:54;-4.20;99.90
47600;DHT22;33323;52.124;6.018;2022-11-20T00:41:23;-4.30;99.90
47600;DHT22;33323;52.124;6.018;2022-11-20T00:43:52;-4.30;99.90
47600;DHT22;33323;52.124;6.018;2022-11-20T00:46:22;-4.20;99.90
47600;DHT22;33323;52.124;6.018;2022-11-20T00:48:50;-4.10;99.90
47600;DHT22;33323;52.124;6.018;2022-11-20T00:51:19;-4.20;99.90
47600;DHT22;33323;52.124;6.018;2022-11-20T00:53:47;-4.30;99.90
47600;DHT22;33323;52.124;6.018;2022-11-20T00:56:17;-4.20;99.90
47600;DHT22;33323;52.124;6.018;2022-11-20T00:58:46;-4.20;99.90
47600;DHT22;33323;52.124;6.018;2022-11-20T01:01:17;-4.10;99.90
47600;DHT22;33323;52.124;6.018;2022-11-20T01:03:46;-4.10;99.90
47600;DHT22;33323;52.124;6.018;2022-11-20T01:06:15;-4.20;99.90
47600;DHT22;33323;52.124;6.018;2022-11-20T01:08:45;-4.20;99.90
47600;DHT22;33323;52.124;6.018;2022-11-20T01:11:15;-4.20;99.90
47600;DHT22;33323;52.124;6.018;2022-11-20T01:13:51;-4.30;99.90
47600;DHT22;33323;52.124;6.018;2022-11-20T01:16:25;-4.30;99.90
47600;DHT22;33323;52.124;6.018;2022-11-20T01:18:55;-4.20;99.90
47600;DHT22;33323;52.124;6.018;2022-11-20T01:21:26;-4.30;99.90
47600;DHT22;33323;52.124;6.018;2022-11-20T01:23:55;-4.30;99.90
47600;DHT22;33323;52.124;6.018;2022-11-20T01:26:26;-4.40;99.90
47600;DHT22;33323;52.124;6.018;2022-11-20T01:28:55;-4.40;99.90
47600;DHT22;33323;52.124;6.018;2022-11-20T01:31:27;-4.40;99.90
47600;DHT22;33323;52.124;6.018;2022-11-20T01:33:58;-4.40;99.90
47600;DHT22;33323;52.124;6.018;2022-11-20T01:36:28;-4.40;99.90
47600;DHT22;33323;52.124;6.018;2022-11-20T01:38:59;-4.40;99.90
47600;DHT22;33323;52.124;6.018;2022-11-20T01:41:29;-4.70;99.90
47600;DHT22;33323;52.124;6.018;2022-11-20T01:44:18;-4.70;99.90
47600;DHT22;33323;52.124;6.018;2022-11-20T01:47:02;-4.70;99.90
47600;DHT22;33323;52.124;6.018;2022-11-20T01:49:38;-4.60;99.90
47600;DHT22;33323;52.124;6.018;2022-11-20T01:52:30;-4.60;99.90
47600;DHT22;33323;52.124;6.018;2022-11-20T01:55:05;-4.50;99.90
47600;DHT22;33323;52.124;6.018;2022-11-20T01:57:35;-4.50;99.90
47600;DHT22;33323;52.124;6.018;2022-11-20T02:00:10;-4.60;99.90
47600;DHT22;33323;52.124;6.018;2022-11-20T02:02:41;-4.60;99.90
47600;DHT22;33323;52.124;6.018;2022-11-20T02:05:23;-4.60;99.90
47600;DHT22;33323;52.124;6.018;2022-11-20T02:07:55;-4.70;99.90
47600;DHT22;33323;52.124;6.018;2022-11-20T02:10:24;-4.70;99.90
47600;DHT22;33323;52.124;6.018;2022-11-20T02:12:51;-4.80;99.90
47600;DHT22;33323;52.124;6.018;2022-11-20T02:15:36;-4.70;99.90
47600;DHT22;33323;52.124;6.018;2022-11-20T02:18:05;-4.70;99.90
47600;DHT22;33323;52.124;6.018;2022-11-20T02:20:32;-4.80;99.90
47600;DHT22;33323;52.124;6.018;2022-11-20T02:23:05;-4.80;99.90
47600;DHT22;33323;52.124;6.018;2022-11-20T02:25:39;-4.70;99.90
47600;DHT22;33323;52.124;6.018;2022-11-20T02:28:07;-4.80;99.90
47600;DHT22;33323;52.124;6.018;2022-11-20T02:30:35;-4.80;99.90
47600;DHT22;33323;52.124;6.018;2022-11-20T02:33:02;-4.90;99.90
47600;DHT22;33323;52.124;6.018;2022-11-20T02:37:58;-4.90;99.90
47600;DHT22;33323;52.124;6.018;2022-11-20T02:40:26;-4.90;99.90
47600;DHT22;33323;52.124;6.018;2022-11-20T02:42:54;-4.90;99.90
47600;DHT22;33323;52.124;6.018;2022-11-20T02:45:23;-4.90;99.90
47600;DHT22;33323;52.124;6.018;2022-11-20T02:47:50;-4.90;99.90
47600;DHT22;33323;52.124;6.018;2022-11-20T02:50:18;-4.90;99.90
47600;DHT22;33323;52.124;6.018;2022-11-20T02:52:45;-5.00;99.90
47600;DHT22;33323;52.124;6.018;2022-11-20T02:55:12;-5.10;99.90
47600;DHT22;33323;52.124;6.018;2022-11-20T02:57:39;-5.10;99.90
47600;DHT22;33323;52.124;6.018;2022-11-20T03:00:07;-5.00;99.90
47600;DHT22;33323;52.124;6.018;2022-11-20T03:02:34;-5.00;99.90
47600;DHT22;33323;52.124;6.018;2022-11-20T03:05:02;-4.90;99.90
47600;DHT22;33323;52.124;6.018;2022-11-20T03:07:29;-4.90;99.90
47600;DHT22;33323;52.124;6.018;2022-11-20T03:09:56;-5.00;99.90
47600;DHT22;33323;52.124;6.018;2022-11-20T03:12:23;-5.00;99.90
47600;DHT22;33323;52.124;6.018;2022-11-20T03:14:50;-4.90;99.90
47600;DHT22;33323;52.124;6.018;2022-11-20T03:17:19;-5.00;99.90
47600;DHT22;33323;52.124;6.018;2022-11-20T03:19:46;-4.90;99.90
47600;DHT22;33323;52.124;6.018;2022-11-20T03:22:13;-4.90;99.90
47600;DHT22;33323;52.124;6.018;2022-11-20T03:24:40;-5.00;99.90
47600;DHT22;33323;52.124;6.018;2022-11-20T03:27:07;-5.00;99.90
47600;DHT22;33323;52.124;6.018;2022-11-20T03:29:35;-5.00;99.90
47600;DHT22;33323;52.124;6.018;2022-11-20T03:32:02;-5.00;99.90
47600;DHT22;33323;52.124;6.018;2022-11-20T03:34:29;-5.10;99.90
47600;DHT22;33323;52.124;6.018;2022-11-20T03:36:56;-5.00;99.90
47600;DHT22;33323;52.124;6.018;2022-11-20T03:39:23;-5.00;99.90
47600;DHT22;33323;52.124;6.018;2022-11-20T03:41:50;-5.10;99.90
47600;DHT22;33323;52.124;6.018;2022-11-20T03:44:17;-5.20;99.90
47600;DHT22;33323;52.124;6.018;2022-11-20T03:46:47;-5.10;99.90
47600;DHT22;33323;52.124;6.018;2022-11-20T03:49:15;-5.20;99.90
47600;DHT22;33323;52.124;6.018;2022-11-20T03:51:42;-5.10;99.90
47600;DHT22;33323;52.124;6.018;2022-11-20T03:54:09;-5.20;99.90
47600;DHT22;33323;52.124;6.018;2022-11-20T03:56:37;-5.20;99.90
47600;DHT22;33323;52.124;6.018;2022-11-20T03:59:05;-5.20;99.90
47600;DHT22;33323;52.124;6.018;2022-11-20T04:01:36;-5.20;99.90
47600;DHT22;33323;52.124;6.018;2022-11-20T04:04:12;-5.20;99.90
47600;DHT22;33323;52.124;6.018;2022-11-20T04:06:39;-5.20;99.90
47600;DHT22;33323;52.124;6.018;2022-11-20T04:09:06;-5.30;99.90
47600;DHT22;33323;52.124;6.018;2022-11-20T04:11:36;-5.30;99.90
47600;DHT22;33323;52.124;6.018;2022-11-20T04:14:12;-5.30;99.90
47600;DHT22;33323;52.124;6.018;2022-11-20T04:16:41;-5.20;99.90
47600;DHT22;33323;52.124;6.018;2022-11-20T04:19:14;-5.30;99.90
47600;DHT22;33323;52.124;6.018;2022-11-20T04:21:51;-5.30;99.90
47600;DHT22;33323;52.124;6.018;2022-11-20T04:24:23;-5.30;99.90
47600;DHT22;33323;52.124;6.018;2022-11-20T04:27:04;-5.30;99.90
47600;DHT22;33323;52.124;6.018;2022-11-20T04:29:50;-5.40;99.90
47600;DHT22;33323;52.124;6.018;2022-11-20T04:32:49;-5.30;99.90
47600;DHT22;33323;52.124;6.018;2022-11-20T04:35:59;-5.40;99.90
47600;DHT22;33323;52.124;6.018;2022-11-20T04:39:24;-5.50;99.90
47600;DHT22;33323;52.124;6.018;2022-11-20T04:43:27;-5.60;99.90
47600;DHT22;33323;52.124;6.018;2022-11-20T04:46:19;-5.50;99.90
47600;DHT22;33323;52.124;6.018;2022-11-20T04:49:22;-5.50;99.90
47600;DHT22;33323;52.124;6.018;2022-11-20T04:52:04;-5.50;99.90
47600;DHT22;33323;52.124;6.018;2022-11-20T04:55:08;-5.40;99.90
47600;DHT22;33323;52.124;6.018;2022-11-20T04:58:59;-5.60;99.90
47600;DHT22;33323;52.124;6.018;2022-11-20T05:02:53;-5.50;99.90
47600;DHT22;33323;52.124;6.018;2022-11-20T05:06:26;-5.50;99.90
47600;DHT22;33323;52.124;6.018;2022-11-20T05:09:16;-5.50;99.90
47600;DHT22;33323;52.124;6.018;2022-11-20T05:12:13;-5.50;99.90
47600;DHT22;33323;52.124;6.018;2022-11-20T05:15:31;-5.50;99.90
47600;DHT22;33323;52.124;6.018;2022-11-20T05:18:18;-5.60;99.90
47600;DHT22;33323;52.124;6.018;2022-11-20T05:21:12;-5.60;99.90
47600;DHT22;33323;52.124;6.018;2022-11-20T05:24:56;-5.60;99.90
47600;DHT22;33323;52.124;6.018;2022-11-20T05:29:32;-5.60;99.90
47600;DHT22;33323;52.124;6.018;2022-11-20T05:33:22;-5.50;99.90
47600;DHT22;33323;52.124;6.018;2022-11-20T05:36:22;-5.60;99.90
47600;DHT22;33323;52.124;6.018;2022-11-20T05:38:49;-5.70;99.90
47600;DHT22;33323;52.124;6.018;2022-11-20T05:41:19;-5.70;99.90
47600;DHT22;33323;52.124;6.018;2022-11-20T05:43:48;-5.70;99.90
47600;DHT22;33323;52.124;6.018;2022-11-20T05:46:18;-5.80;99.90
47600;DHT22;33323;52.124;6.018;2022-11-20T05:48:59;-5.80;99.90
47600;DHT22;33323;52.124;6.018;2022-11-20T05:51:27;-5.90;99.90
47600;DHT22;33323;52.124;6.018;2022-11-20T05:53:56;-5.80;99.90
47600;DHT22;33323;52.124;6.018;2022-11-20T05:56:24;-5.80;99.90
47600;DHT22;33323;52.124;6.018;2022-11-20T05:58:51;-5.80;99.90
47600;DHT22;33323;52.124;6.018;2022-11-20T06:01:25;-5.80;99.90
47600;DHT22;33323;52.124;6.018;2022-11-20T06:03:57;-5.90;99.90
47600;DHT22;33323;52.124;6.018;2022-11-20T06:12:23;-6.10;99.90
47600;DHT22;33323;52.124;6.018;2022-11-20T06:30:46;-6.00;99.90
47600;DHT22;33323;52.124;6.018;2022-11-20T06:33:13;-5.90;99.90
47600;DHT22;33323;52.124;6.018;2022-11-20T06:35:40;-5.90;99.90
47600;DHT22;33323;52.124;6.018;2022-11-20T06:38:07;-6.00;99.90
47600;DHT22;33323;52.124;6.018;2022-11-20T06:40:34;-6.00;99.90
47600;DHT22;33323;52.124;6.018;2022-11-20T06:43:01;-5.90;99.90
47600;DHT22;33323;52.124;6.018;2022-11-20T06:45:28;-6.00;99.90
47600;DHT22;33323;52.124;6.018;2022-11-20T06:47:57;-5.90;99.90
47600;DHT22;33323;52.124;6.018;2022-11-20T06:53:21;-6.00;99.90
47600;DHT22;33323;52.124;6.018;2022-11-20T06:55:50;-6.00;99.90
47600;DHT22;33323;52.124;6.018;2022-11-20T06:58:18;-5.90;99.90
47600;DHT22;33323;52.124;6.018;2022-11-20T07:00:45;-5.90;99.90
47600;DHT22;33323;52.124;6.018;2022-11-20T07:03:13;-6.00;99.90
47600;DHT22;33323;52.124;6.018;2022-11-20T07:05:40;-6.00;99.90
47600;DHT22;33323;52.124;6.018;2022-11-20T07:08:08;-6.00;99.90
47600;DHT22;33323;52.124;6.018;2022-11-20T07:10:37;-5.90;99.90
47600;DHT22;33323;52.124;6.018;2022-11-20T07:13:06;-6.00;99.90
47600;DHT22;33323;52.124;6.018;2022-11-20T07:15:34;-6.00;99.90
47600;DHT22;33323;52.124;6.018;2022-11-20T07:18:04;-6.00;99.90
47600;DHT22;33323;52.124;6.018;2022-11-20T07:20:36;-5.90;99.90
47600;DHT22;33323;52.124;6.018;2022-11-20T07:25:52;-5.90;99.90
47600;DHT22;33323;52.124;6.018;2022-11-20T07:28:20;-5.90;99.90
47600;DHT22;33323;52.124;6.018;2022-11-20T07:30:52;-5.90;99.90
47600;DHT22;33323;52.124;6.018;2022-11-20T07:33:23;-5.80;99.90
47600;DHT22;33323;52.124;6.018;2022-11-20T07:35:53;-5.80;99.90
47600;DHT22;33323;52.124;6.018;2022-11-20T07:38:24;-6.10;99.90
47600;DHT22;33323;52.124;6.018;2022-11-20T07:40:57;-6.00;99.90
47600;DHT22;33323;52.124;6.018;2022-11-20T07:43:26;-5.90;99.90
47600;DHT22;33323;52.124;6.018;2022-11-20T07:45:57;-5.50;99.90
47600;DHT22;33323;52.124;6.018;2022-11-20T07:48:28;-5.40;99.90
47600;DHT22;33323;52.124;6.018;2022-11-20T07:50:57;-5.20;99.90
47600;DHT22;33323;52.124;6.018;2022-11-20T07:53:25;-5.00;99.90
47600;DHT22;33323;52.124;6.018;2022-11-20T07:55:52;-4.50;99.90
47600;DHT22;33323;52.124;6.018;2022-11-20T07:58:20;-3.90;99.90
47600;DHT22;33323;52.124;6.018;2022-11-20T08:00:48;-3.20;99.90
47600;DHT22;33323;52.124;6.018;2022-11-20T08:03:15;-2.40;99.90
47600;DHT22;33323;52.124;6.018;2022-11-20T08:05:50;-1.90;99.90
47600;DHT22;33323;52.124;6.018;2022-11-20T08:11:22;-0.90;97.50
47600;DHT22;33323;52.124;6.018;2022-11-20T08:14:07;-0.60;97.60
47600;DHT22;33323;52.124;6.018;2022-11-20T08:16:45;-0.10;96.00
47600;DHT22;33323;52.124;6.018;2022-11-20T08:19:24;0.10;96.20
47600;DHT22;33323;52.124;6.018;2022-11-20T08:21:51;0.10;95.20
47600;DHT22;33323;52.124;6.018;2022-11-20T08:24:19;0.10;95.50
47600;DHT22;33323;52.124;6.018;2022-11-20T08:26:46;0.10;96.30
47600;DHT22;33323;52.124;6.018;2022-11-20T08:29:13;0.30;95.80
47600;DHT22;33323;52.124;6.018;2022-11-20T08:31:41;0.40;95.60
47600;DHT22;33323;52.124;6.018;2022-11-20T08:34:08;0.60;96.20
47600;DHT22;33323;52.124;6.018;2022-11-20T08:36:38;0.60;95.60
47600;DHT22;33323;52.124;6.018;2022-11-20T08:39:05;0.60;95.80
47600;DHT22;33323;52.124;6.018;2022-11-20T08:41:57;0.60;97.30
47600;DHT22;33323;52.124;6.018;2022-11-20T08:44:24;1.00;96.40
47600;DHT22;33323;52.124;6.018;2022-11-20T08:46:54;1.20;95.80
47600;DHT22;33323;52.124;6.018;2022-11-20T08:49:21;0.90;95.70
47600;DHT22;33323;52.124;6.018;2022-11-20T08:51:49;0.60;96.60
47600;DHT22;33323;52.124;6.018;2022-11-20T08:54:20;0.20;97.50
47600;DHT22;33323;52.124;6.018;2022-11-20T08:59:48;-0.30;99.90
47600;DHT22;33323;52.124;6.018;2022-11-20T09:06:47;-0.10;99.90
47600;DHT22;33323;52.124;6.018;2022-11-20T09:09:32;0.50;99.90
47600;DHT22;33323;52.124;6.018;2022-11-20T09:11:59;0.80;99.60
47600;DHT22;33323;52.124;6.018;2022-11-20T09:14:27;1.20;98.90
47600;DHT22;33323;52.124;6.018;2022-11-20T09:16:56;1.50;97.80
47600;DHT22;33323;52.124;6.018;2022-11-20T09:19:24;1.80;97.60
47600;DHT22;33323;52.124;6.018;2022-11-20T09:22:02;2.20;98.10
47600;DHT22;33323;52.124;6.018;2022-11-20T09:24:29;1.80;96.40
47600;DHT22;33323;52.124;6.018;2022-11-20T09:26:56;1.30;98.00
47600;DHT22;33323;52.124;6.018;2022-11-20T09:29:23;0.80;99.90
47600;DHT22;33323;52.124;6.018;2022-11-20T09:31:50;0.60;99.90
47600;DHT22;33323;52.124;6.018;2022-11-20T09:34:17;0.60;99.90
47600;DHT22;33323;52.124;6.018;2022-11-20T09:36:44;0.50;99.90
47600;DHT22;33323;52.124;6.018;2022-11-20T09:39:11;0.50;99.90
47600;DHT22;33323;52.124;6.018;2022-11-20T09:42:00;0.30;99.90
47600;DHT22;33323;52.124;6.018;2022-11-20T09:47:52;0.30;99.90
47600;DHT22;33323;52.124;6.018;2022-11-20T09:50:34;0.30;99.90
47600;DHT22;33323;52.124;6.018;2022-11-20T09:55:39;0.40;99.90
47600;DHT22;33323;52.124;6.018;2022-11-20T09:58:22;0.30;99.90
47600;DHT22;33323;52.124;6.018;2022-11-20T10:01:19;0.30;99.90
47600;DHT22;33323;52.124;6.018;2022-11-20T10:06:41;0.10;99.90
47600;DHT22;33323;52.124;6.018;2022-11-20T10:09:39;0.20;99.90
47600;DHT22;33323;52.124;6.018;2022-11-20T10:12:34;0.30;99.90
47600;DHT22;33323;52.124;6.018;2022-11-20T10:15:25;0.50;99.90
47600;DHT22;33323;52.124;6.018;2022-11-20T10:18:05;0.70;99.90
47600;DHT22;33323;52.124;6.018;2022-11-20T10:23:55;0.60;99.90
47600;DHT22;33323;52.124;6.018;2022-11-20T10:29:49;0.60;99.90
47600;DHT22;33323;52.124;6.018;2022-11-20T10:32:35;0.60;99.90
47600;DHT22;33323;52.124;6.018;2022-11-20T10:35:28;0.70;99.90
47600;DHT22;33323;52.124;6.018;2022-11-20T10:38:05;0.70;99.90
47600;DHT22;33323;52.124;6.018;2022-11-20T10:40:43;0.70;99.90
47600;DHT22;33323;52.124;6.018;2022-11-20T10:43:16;0.80;99.90
47600;DHT22;33323;52.124;6.018;2022-11-20T10:48:24;0.90;99.90
47600;DHT22;33323;52.124;6.018;2022-11-20T10:53:54;1.00;99.90
47600;DHT22;33323;52.124;6.018;2022-11-20T10:56:47;1.10;99.90
47600;DHT22;33323;52.124;6.018;2022-11-20T10:59:35;1.30;99.90
47600;DHT22;33323;52.124;6.018;2022-11-20T11:02:31;1.40;99.90
47600;DHT22;33323;52.124;6.018;2022-11-20T11:07:40;1.50;99.90
47600;DHT22;33323;52.124;6.018;2022-11-20T11:10:18;1.50;99.90
47600;DHT22;33323;52.124;6.018;2022-11-20T11:12:50;1.60;99.90
47600;DHT22;33323;52.124;6.018;2022-11-20T11:15:37;1.70;99.90
47600;DHT22;33323;52.124;6.018;2022-11-20T11:18:09;1.70;99.90
47600;DHT22;33323;52.124;6.018;2022-11-20T11:20:37;1.80;99.90
47600;DHT22;33323;52.124;6.018;2022-11-20T11:23:04;1.90;99.90
47600;DHT22;33323;52.124;6.018;2022-11-20T11:25:35;1.90;99.90
47600;DHT22;33323;52.124;6.018;2022-11-20T11:28:24;1.90;99.90
47600;DHT22;33323;52.124;6.018;2022-11-20T11:30:54;2.00;99.90
47600;DHT22;33323;52.124;6.018;2022-11-20T11:33:24;2.10;99.90
47600;DHT22;33323;52.124;6.018;2022-11-20T11:35:54;2.20;99.90
47600;DHT22;33323;52.124;6.018;2022-11-20T11:38:39;2.10;99.90
47600;DHT22;33323;52.124;6.018;2022-11-20T11:41:15;2.20;99.90
47600;DHT22;33323;52.124;6.018;2022-11-20T11:43:55;2.30;99.90
47600;DHT22;33323;52.124;6.018;2022-11-20T11:46:53;2.40;99.90
47600;DHT22;33323;52.124;6.018;2022-11-20T11:49:21;2.50;99.90
47600;DHT22;33323;52.124;6.018;2022-11-20T11:54:45;2.30;99.90
47600;DHT22;33323;52.124;6.018;2022-11-20T12:00:05;2.20;99.90
47600;DHT22;33323;52.124;6.018;2022-11-20T12:05:25;2.20;99.90
47600;DHT22;33323;52.124;6.018;2022-11-20T12:13:52;2.10;99.90
47600;DHT22;33323;52.124;6.018;2022-11-20T12:16:21;2.10;99.90
47600;DHT22;33323;52.124;6.018;2022-11-20T12:18:50;2.00;99.90
47600;DHT22;33323;52.124;6.018;2022-11-20T12:24:16;1.90;99.90
47600;DHT22;33323;52.124;6.018;2022-11-20T12:30:00;1.80;99.90
47600;DHT22;33323;52.124;6.018;2022-11-20T12:47:38;1.60;99.90
47600;DHT22;33323;52.124;6.018;2022-11-20T12:53:07;1.50;99.90
47600;DHT22;33323;52.124;6.018;2022-11-20T12:56:16;1.60;99.90
47600;DHT22;33323;52.124;6.018;2022-11-20T15:29:57;1.90;99.90
47600;DHT22;33323;52.124;6.018;2022-11-20T15:32:24;1.90;99.90
47600;DHT22;33323;52.124;6.018;2022-11-20T15:49:03;2.20;99.90
47600;DHT22;33323;52.124;6.018;2022-11-20T15:51:35;2.20;99.90
47600;DHT22;33323;52.124;6.018;2022-11-20T15:54:23;2.10;99.90
47600;DHT22;33323;52.124;6.018;2022-11-20T15:59:58;2.10;99.90
47600;DHT22;33323;52.124;6.018;2022-11-20T16:14:16;2.10;99.90
47600;DHT22;33323;52.124;6.018;2022-11-20T16:17:02;2.10;99.90
47600;DHT22;33323;52.124;6.018;2022-11-20T16:22:18;2.10;99.90
47600;DHT22;33323;52.124;6.018;2022-11-20T16:24:52;2.10;99.90
47600;DHT22;33323;52.124;6.018;2022-11-20T16:27:28;2.00;99.90
47600;DHT22;33323;52.124;6.018;2022-11-20T16:29:55;2.00;99.90
47600;DHT22;33323;52.124;6.018;2022-11-20T16:32:22;2.00;99.90
47600;DHT22;33323;52.124;6.018;2022-11-20T16:34:49;2.00;99.90
47600;DHT22;33323;52.124;6.018;2022-11-20T16:37:16;2.00;99.90
47600;DHT22;33323;52.124;6.018;2022-11-20T16:39:43;2.00;99.90
47600;DHT22;33323;52.124;6.018;2022-11-20T16:42:10;2.00;99.90
47600;DHT22;33323;52.124;6.018;2022-11-20T16:44:37;2.00;99.90
47600;DHT22;33323;52.124;6.018;2022-11-20T16:47:04;2.00;99.90
47600;DHT22;33323;52.124;6.018;2022-11-20T16:49:31;2.00;99.90
47600;DHT22;33323;52.124;6.018;2022-11-20T16:51:59;1.90;99.90
47600;DHT22;33323;52.124;6.018;2022-11-20T16:54:25;1.90;99.90
47600;DHT22;33323;52.124;6.018;2022-11-20T16:56:53;2.00;99.90
47600;DHT22;33323;52.124;6.018;2022-11-20T16:59:20;2.00;99.90
47600;DHT22;33323;52.124;6.018;2022-11-20T17:01:47;2.00;99.90
47600;DHT22;33323;52.124;6.018;2022-11-20T17:04:14;2.00;99.90
47600;DHT22;33323;52.124;6.018;2022-11-20T17:06:43;2.00;99.90
47600;DHT22;33323;52.124;6.018;2022-11-20T17:09:10;2.00;99.90
47600;DHT22;33323;52.124;6.018;2022-11-20T17:11:38;2.00;99.90
47600;DHT22;33323;52.124;6.018;2022-11-20T17:14:06;2.00;99.90
47600;DHT22;33323;52.124;6.018;2022-11-20T17:16:34;2.10;99.90
47600;DHT22;33323;52.124;6.018;2022-11-20T17:19:08;2.30;99.90
47600;DHT22;33323;52.124;6.018;2022-11-20T17:21:38;2.30;99.90
47600;DHT22;33323;52.124;6.018;2022-11-20T17:24:12;2.20;99.90
47600;DHT22;33323;52.124;6.018;2022-11-20T17:26:41;2.10;99.90
47600;DHT22;33323;52.124;6.018;2022-11-20T17:29:14;2.10;99.90
47600;DHT22;33323;52.124;6.018;2022-11-20T17:31:44;2.10;99.90
47600;DHT22;33323;52.124;6.018;2022-11-20T17:34:13;2.10;99.90
47600;DHT22;33323;52.124;6.018;2022-11-20T17:36:41;2.10;99.90
47600;DHT22;33323;52.124;6.018;2022-11-20T17:39:13;2.10;99.90
47600;DHT22;33323;52.124;6.018;2022-11-20T17:41:41;2.10;99.90
47600;DHT22;33323;52.124;6.018;2022-11-20T17:44:09;2.10;99.90
47600;DHT22;33323;52.124;6.018;2022-11-20T17:46:36;2.10;99.90
47600;DHT22;33323;52.124;6.018;2022-11-20T17:49:03;2.10;99.90
47600;DHT22;33323;52.124;6.018;2022-11-20T17:51:32;2.10;99.90
47600;DHT22;33323;52.124;6.018;2022-11-20T17:54:02;2.10;99.90
47600;DHT22;33323;52.124;6.018;2022-11-20T17:56:33;2.10;99.90
47600;DHT22;33323;52.124;6.018;2022-11-20T17:59:19;2.10;99.90
47600;DHT22;33323;52.124;6.018;2022-11-20T18:01:47;2.10;99.90
47600;DHT22;33323;52.124;6.018;2022-11-20T18:04:15;2.20;99.90
47600;DHT22;33323;52.124;6.018;2022-11-20T18:06:42;2.10;99.90
47600;DHT22;33323;52.124;6.018;2022-11-20T18:09:11;2.10;99.90
47600;DHT22;33323;52.124;6.018;2022-11-20T18:11:40;2.10;99.90
47600;DHT22;33323;52.124;6.018;2022-11-20T18:14:15;2.10;99.90
47600;DHT22;33323;52.124;6.018;2022-11-20T18:19:32;2.10;99.90
47600;DHT22;33323;52.124;6.018;2022-11-20T18:22:06;2.20;99.90
47600;DHT22;33323;52.124;6.018;2022-11-20T18:24:35;2.10;99.90
47600;DHT22;33323;52.124;6.018;2022-11-20T18:27:03;2.10;99.90
47600;DHT22;33323;52.124;6.018;2022-11-20T18:29:31;2.10;99.90
47600;DHT22;33323;52.124;6.018;2022-11-20T18:31:59;2.20;99.90
47600;DHT22;33323;52.124;6.018;2022-11-20T18:34:26;2.20;99.90
47600;DHT22;33323;52.124;6.018;2022-11-20T18:39:45;2.20;99.90
47600;DHT22;33323;52.124;6.018;2022-11-20T18:42:14;2.20;99.90
47600;DHT22;33323;52.124;6.018;2022-11-20T18:45:01;2.10;99.90
47600;DHT22;33323;52.124;6.018;2022-11-20T18:47:32;2.10;99.90
47600;DHT22;33323;52.124;6.018;2022-11-20T18:50:04;2.10;99.90
47600;DHT22;33323;52.124;6.018;2022-11-20T18:52:38;2.10;99.90
47600;DHT22;33323;52.124;6.018;2022-11-20T18:55:07;2.10;99.90
47600;DHT22;33323;52.124;6.018;2022-11-20T18:57:34;2.10;99.90
47600;DHT22;33323;52.124;6.018;2022-11-20T19:00:03;2.10;99.90
47600;DHT22;33323;52.124;6.018;2022-11-20T19:02:35;2.10;99.90
47600;DHT22;33323;52.124;6.018;2022-11-20T19:05:12;2.10;99.90
47600;DHT22;33323;52.124;6.018;2022-11-20T19:07:40;2.20;99.90
47600;DHT22;33323;52.124;6.018;2022-11-20T19:10:07;2.10;99.90
47600;DHT22;33323;52.124;6.018;2022-11-20T19:15:50;2.10;99.90
47600;DHT22;33323;52.124;6.018;2022-11-20T19:18:17;2.10;99.90
47600;DHT22;33323;52.124;6.018;2022-11-20T19:20:44;2.20;99.90
47600;DHT22;33323;52.124;6.018;2022-11-20T19:23:11;2.10;99.90
47600;DHT22;33323;52.124;6.018;2022-11-20T19:25:39;2.10;99.90
47600;DHT22;33323;52.124;6.018;2022-11-20T19:28:06;2.10;99.90
47600;DHT22;33323;52.124;6.018;2022-11-20T19:30:33;2.10;99.90
47600;DHT22;33323;52.124;6.018;2022-11-20T19:32:59;2.10;99.90
47600;DHT22;33323;52.124;6.018;2022-11-20T19:35:26;2.10;99.90
47600;DHT22;33323;52.124;6.018;2022-11-20T19:37:53;2.10;99.90
47600;DHT22;33323;52.124;6.018;2022-11-20T19:40:20;2.10;99.90
47600;DHT22;33323;52.124;6.018;2022-11-20T19:42:47;2.20;99.90
47600;DHT22;33323;52.124;6.018;2022-11-20T19:45:14;2.10;99.90
47600;DHT22;33323;52.124;6.018;2022-11-20T19:47:41;2.10;99.90
47600;DHT22;33323;52.124;6.018;2022-11-20T19:50:28;2.10;99.90
47600;DHT22;33323;52.124;6.018;2022-11-20T19:52:57;2.10;99.90
47600;DHT22;33323;52.124;6.018;2022-11-20T19:55:25;2.10;99.90
47600;DHT22;33323;52.124;6.018;2022-11-20T19:57:52;2.10;99.90
47600;DHT22;33323;52.124;6.018;2022-11-20T20:00:19;2.10;99.90
47600;DHT22;33323;52.124;6.018;2022-11-20T20:02:57;2.20;99.90
47600;DHT22;33323;52.124;6.018;2022-11-20T20:05:24;2.10;99.90
47600;DHT22;33323;52.124;6.018;2022-11-20T20:07:51;2.20;99.90
47600;DHT22;33323;52.124;6.018;2022-11-20T20:10:18;2.20;99.90
47600;DHT22;33323;52.124;6.018;2022-11-20T20:12:45;2.20;99.90
47600;DHT22;33323;52.124;6.018;2022-11-20T20:15:12;2.10;99.90
47600;DHT22;33323;52.124;6.018;2022-11-20T20:17:39;2.20;99.90
47600;DHT22;33323;52.124;6.018;2022-11-20T20:20:07;2.20;99.90
47600;DHT22;33323;52.124;6.018;2022-11-20T20:22:34;2.20;99.90
47600;DHT22;33323;52.124;6.018;2022-11-20T20:25:01;2.10;99.90
47600;DHT22;33323;52.124;6.018;2022-11-20T20:27:28;2.20;99.90
47600;DHT22;33323;52.124;6.018;2022-11-20T20:29:55;2.10;99.90
47600;DHT22;33323;52.124;6.018;2022-11-20T20:32:23;2.20;99.90
47600;DHT22;33323;52.124;6.018;2022-11-20T20:34:50;2.20;99.90
47600;DHT22;33323;52.124;6.018;2022-11-20T20:37:17;2.10;99.90
47600;DHT22;33323;52.124;6.018;2022-11-20T20:39:44;2.10;99.90
47600;DHT22;33323;52.124;6.018;2022-11-20T20:42:11;2.10;99.90
47600;DHT22;33323;52.124;6.018;2022-11-20T20:44:38;2.20;99.90
47600;DHT22;33323;52.124;6.018;2022-11-20T20:47:36;2.10;99.90
47600;DHT22;33323;52.124;6.018;2022-11-20T20:50:05;2.10;99.90
47600;DHT22;33323;52.124;6.018;2022-11-20T20:52:34;2.10;99.90
47600;DHT22;33323;52.124;6.018;2022-11-20T20:55:02;2.10;99.90
47600;DHT22;33323;52.124;6.018;2022-11-20T20:57:30;2.10;99.90
47600;DHT22;33323;52.124;6.018;2022-11-20T20:59:56;2.10;99.90
47600;DHT22;33323;52.124;6.018;2022-11-20T21:02:24;2.00;99.90
47600;DHT22;33323;52.124;6.018;2022-11-20T21:04:51;2.10;99.90
47600;DHT22;33323;52.124;6.018;2022-11-20T21:07:18;2.10;99.90
47600;DHT22;33323;52.124;6.018;2022-11-20T21:09:45;2.10;99.90
47600;DHT22;33323;52.124;6.018;2022-11-20T21:12:12;2.10;99.90
47600;DHT22;33323;52.124;6.018;2022-11-20T21:14:39;2.10;99.90